CheckWX is a tool to help pilots better visualize weather data.  It is not intended as a substitute for an official pre-flight weather briefing.

01:05:00 UTC

EDDP METAR
Leipzig Halle Airport
Leipzig, Germany
Current

15 mins ago

EDDP 240050Z 17007KT CAVOK M02/M06 Q1039 NOSIG
Observed
Feb-24 @ 00:50 UTC
Wind
  • 170° at 7 KTS
Visibility
10,000+ meters
Flight Rules
VFR
Cloud Levels
  • Clear skies
Temperature
-2°C / 28°F
Dewpoint
-6°C / 21°F
Humidity
74%
Altimeter
30.68" Hg
Pressure
1038.91 hPa
Previous

45 mins ago

EDDP 240020Z 18006KT CAVOK M01/M06 Q1039 NOSIG
Observed
Feb-24 @ 00:20 UTC
Wind
  • 180° at 6 KTS
Visibility
10,000+ meters
Flight Rules
VFR
Cloud Levels
  • Clear skies
Temperature
-1°C / 30°F
Dewpoint
-6°C / 21°F
Humidity
69%
Altimeter
30.68" Hg
Pressure
1038.91 hPa
Previous

1 hour ago

EDDP 232350Z 16004KT CAVOK M01/M05 Q1039 NOSIG
Observed
Feb-23 @ 23:50 UTC
Wind
  • 160° at 4 KTS
Visibility
10,000+ meters
Flight Rules
VFR
Cloud Levels
  • Clear skies
Temperature
-1°C / 30°F
Dewpoint
-5°C / 23°F
Humidity
75%
Altimeter
30.68" Hg
Pressure
1038.91 hPa